sensor_id;sensor_type;location;lat;lon;timestamp;P1;durP1;ratioP1;P2;durP2;ratioP2
39400;SDS011;54391;50.000;7.360;2023-05-07T00:02:27;1.88;;;1.60;;
39400;SDS011;54391;50.000;7.360;2023-05-07T00:04:54;2.58;;;1.73;;
39400;SDS011;54391;50.000;7.360;2023-05-07T00:07:21;3.45;;;1.40;;
39400;SDS011;54391;50.000;7.360;2023-05-07T00:09:49;3.92;;;1.80;;
39400;SDS011;54391;50.000;7.360;2023-05-07T00:12:16;2.60;;;1.55;;
39400;SDS011;54391;50.000;7.360;2023-05-07T00:14:44;2.42;;;1.50;;
39400;SDS011;54391;50.000;7.360;2023-05-07T00:17:12;1.77;;;1.48;;
39400;SDS011;54391;50.000;7.360;2023-05-07T00:19:39;2.30;;;1.65;;
39400;SDS011;54391;50.000;7.360;2023-05-07T00:22:06;3.88;;;1.48;;
39400;SDS011;54391;50.000;7.360;2023-05-07T00:24:34;3.17;;;1.52;;
39400;SDS011;54391;50.000;7.360;2023-05-07T00:27:01;3.38;;;1.70;;
39400;SDS011;54391;50.000;7.360;2023-05-07T00:29:28;2.90;;;1.55;;
39400;SDS011;54391;50.000;7.360;2023-05-07T00:31:57;2.13;;;1.50;;
39400;SDS011;54391;50.000;7.360;2023-05-07T00:34:24;1.50;;;1.30;;
39400;SDS011;54391;50.000;7.360;2023-05-07T00:36:51;1.98;;;1.15;;
39400;SDS011;54391;50.000;7.360;2023-05-07T00:39:18;2.08;;;1.30;;
39400;SDS011;54391;50.000;7.360;2023-05-07T00:41:46;4.32;;;1.60;;
39400;SDS011;54391;50.000;7.360;2023-05-07T00:44:13;2.33;;;1.40;;
39400;SDS011;54391;50.000;7.360;2023-05-07T00:46:41;3.88;;;1.80;;
39400;SDS011;54391;50.000;7.360;2023-05-07T00:49:09;4.47;;;1.55;;
39400;SDS011;54391;50.000;7.360;2023-05-07T00:51:39;2.63;;;1.60;;
39400;SDS011;54391;50.000;7.360;2023-05-07T00:54:07;3.78;;;1.70;;
39400;SDS011;54391;50.000;7.360;2023-05-07T00:56:35;3.22;;;1.70;;
39400;SDS011;54391;50.000;7.360;2023-05-07T00:59:04;4.55;;;1.80;;
39400;SDS011;54391;50.000;7.360;2023-05-07T01:01:32;2.45;;;1.48;;
39400;SDS011;54391;50.000;7.360;2023-05-07T01:04:00;3.28;;;1.25;;
39400;SDS011;54391;50.000;7.360;2023-05-07T01:06:29;1.90;;;1.50;;
39400;SDS011;54391;50.000;7.360;2023-05-07T01:08:58;2.30;;;1.40;;
39400;SDS011;54391;50.000;7.360;2023-05-07T01:11:27;2.80;;;1.55;;
39400;SDS011;54391;50.000;7.360;2023-05-07T01:13:55;2.85;;;1.42;;
39400;SDS011;54391;50.000;7.360;2023-05-07T01:16:23;2.50;;;1.42;;
39400;SDS011;54391;50.000;7.360;2023-05-07T01:18:50;1.92;;;1.50;;
39400;SDS011;54391;50.000;7.360;2023-05-07T01:21:18;2.33;;;1.65;;
39400;SDS011;54391;50.000;7.360;2023-05-07T01:23:56;5.03;;;2.00;;
39400;SDS011;54391;50.000;7.360;2023-05-07T01:26:24;3.35;;;1.80;;
39400;SDS011;54391;50.000;7.360;2023-05-07T01:28:51;4.07;;;1.65;;
39400;SDS011;54391;50.000;7.360;2023-05-07T01:31:18;2.42;;;1.52;;
39400;SDS011;54391;50.000;7.360;2023-05-07T01:33:46;4.68;;;1.80;;
39400;SDS011;54391;50.000;7.360;2023-05-07T01:36:18;2.75;;;1.60;;
39400;SDS011;54391;50.000;7.360;2023-05-07T01:38:46;3.97;;;1.73;;
39400;SDS011;54391;50.000;7.360;2023-05-07T01:41:15;2.50;;;1.60;;
39400;SDS011;54391;50.000;7.360;2023-05-07T01:43:42;2.25;;;1.73;;
39400;SDS011;54391;50.000;7.360;2023-05-07T01:46:10;3.60;;;1.83;;
39400;SDS011;54391;50.000;7.360;2023-05-07T01:48:38;2.85;;;1.60;;
39400;SDS011;54391;50.000;7.360;2023-05-07T01:51:06;3.67;;;1.83;;
39400;SDS011;54391;50.000;7.360;2023-05-07T01:53:37;1.75;;;1.55;;
39400;SDS011;54391;50.000;7.360;2023-05-07T01:56:06;3.95;;;1.67;;
39400;SDS011;54391;50.000;7.360;2023-05-07T01:58:37;4.00;;;1.85;;
39400;SDS011;54391;50.000;7.360;2023-05-07T02:01:04;4.07;;;1.52;;
39400;SDS011;54391;50.000;7.360;2023-05-07T02:03:31;4.07;;;1.80;;
39400;SDS011;54391;50.000;7.360;2023-05-07T02:06:06;4.27;;;1.97;;
39400;SDS011;54391;50.000;7.360;2023-05-07T02:08:36;2.90;;;1.70;;
39400;SDS011;54391;50.000;7.360;2023-05-07T02:11:03;4.07;;;2.08;;
39400;SDS011;54391;50.000;7.360;2023-05-07T02:13:32;3.20;;;2.00;;
39400;SDS011;54391;50.000;7.360;2023-05-07T02:16:01;2.65;;;1.77;;
39400;SDS011;54391;50.000;7.360;2023-05-07T02:18:28;4.28;;;1.83;;
39400;SDS011;54391;50.000;7.360;2023-05-07T02:20:55;2.45;;;1.80;;
39400;SDS011;54391;50.000;7.360;2023-05-07T02:23:22;3.47;;;1.80;;
39400;SDS011;54391;50.000;7.360;2023-05-07T02:25:50;3.22;;;1.83;;
39400;SDS011;54391;50.000;7.360;2023-05-07T02:28:18;3.28;;;2.10;;
39400;SDS011;54391;50.000;7.360;2023-05-07T02:31:06;2.42;;;1.92;;
39400;SDS011;54391;50.000;7.360;2023-05-07T02:33:33;3.95;;;2.22;;
39400;SDS011;54391;50.000;7.360;2023-05-07T02:36:07;3.50;;;2.42;;
39400;SDS011;54391;50.000;7.360;2023-05-07T02:41:07;3.17;;;2.00;;
39400;SDS011;54391;50.000;7.360;2023-05-07T02:43:34;3.65;;;2.58;;
39400;SDS011;54391;50.000;7.360;2023-05-07T02:46:02;3.88;;;2.90;;
39400;SDS011;54391;50.000;7.360;2023-05-07T02:48:31;3.90;;;2.53;;
39400;SDS011;54391;50.000;7.360;2023-05-07T02:50:58;5.40;;;2.13;;
39400;SDS011;54391;50.000;7.360;2023-05-07T02:53:27;4.03;;;2.70;;
39400;SDS011;54391;50.000;7.360;2023-05-07T02:55:55;3.00;;;2.30;;
39400;SDS011;54391;50.000;7.360;2023-05-07T02:58:23;4.50;;;2.53;;
39400;SDS011;54391;50.000;7.360;2023-05-07T03:00:50;2.78;;;2.28;;
39400;SDS011;54391;50.000;7.360;2023-05-07T03:03:26;3.45;;;2.40;;
39400;SDS011;54391;50.000;7.360;2023-05-07T03:05:55;3.33;;;2.05;;
39400;SDS011;54391;50.000;7.360;2023-05-07T03:08:22;3.60;;;1.90;;
39400;SDS011;54391;50.000;7.360;2023-05-07T03:10:50;3.30;;;2.22;;
39400;SDS011;54391;50.000;7.360;2023-05-07T03:13:17;2.95;;;2.00;;
39400;SDS011;54391;50.000;7.360;2023-05-07T03:15:44;4.13;;;2.20;;
39400;SDS011;54391;50.000;7.360;2023-05-07T03:18:11;4.65;;;1.92;;
39400;SDS011;54391;50.000;7.360;2023-05-07T03:20:39;5.00;;;2.38;;
39400;SDS011;54391;50.000;7.360;2023-05-07T03:23:07;5.13;;;2.45;;
39400;SDS011;54391;50.000;7.360;2023-05-07T03:25:35;4.90;;;2.65;;
39400;SDS011;54391;50.000;7.360;2023-05-07T03:28:02;6.90;;;2.10;;
39400;SDS011;54391;50.000;7.360;2023-05-07T03:30:37;3.55;;;2.13;;
39400;SDS011;54391;50.000;7.360;2023-05-07T03:33:05;4.35;;;2.10;;
39400;SDS011;54391;50.000;7.360;2023-05-07T03:35:32;3.60;;;2.03;;
39400;SDS011;54391;50.000;7.360;2023-05-07T03:37:59;5.90;;;2.38;;
39400;SDS011;54391;50.000;7.360;2023-05-07T03:40:31;5.75;;;2.90;;
39400;SDS011;54391;50.000;7.360;2023-05-07T03:42:59;3.45;;;2.33;;
39400;SDS011;54391;50.000;7.360;2023-05-07T03:45:29;3.92;;;2.17;;
39400;SDS011;54391;50.000;7.360;2023-05-07T03:48:06;2.95;;;2.13;;
39400;SDS011;54391;50.000;7.360;2023-05-07T03:50:33;6.53;;;2.28;;
39400;SDS011;54391;50.000;7.360;2023-05-07T03:53:00;7.25;;;2.63;;
39400;SDS011;54391;50.000;7.360;2023-05-07T03:55:29;3.92;;;2.40;;
39400;SDS011;54391;50.000;7.360;2023-05-07T03:57:59;3.95;;;2.17;;
39400;SDS011;54391;50.000;7.360;2023-05-07T04:00:28;5.43;;;2.50;;
39400;SDS011;54391;50.000;7.360;2023-05-07T04:02:59;3.78;;;2.28;;
39400;SDS011;54391;50.000;7.360;2023-05-07T04:05:29;3.55;;;2.63;;
39400;SDS011;54391;50.000;7.360;2023-05-07T04:08:00;3.67;;;2.22;;
39400;SDS011;54391;50.000;7.360;2023-05-07T04:10:38;4.78;;;2.10;;
39400;SDS011;54391;50.000;7.360;2023-05-07T04:13:10;4.15;;;1.88;;
39400;SDS011;54391;50.000;7.360;2023-05-07T04:15:37;4.05;;;2.15;;
39400;SDS011;54391;50.000;7.360;2023-05-07T04:18:08;3.83;;;2.40;;
39400;SDS011;54391;50.000;7.360;2023-05-07T04:20:36;5.18;;;2.05;;
39400;SDS011;54391;50.000;7.360;2023-05-07T04:23:06;4.13;;;2.40;;
39400;SDS011;54391;50.000;7.360;2023-05-07T04:25:34;5.35;;;2.28;;
39400;SDS011;54391;50.000;7.360;2023-05-07T04:28:11;2.63;;;1.90;;
39400;SDS011;54391;50.000;7.360;2023-05-07T04:30:40;4.72;;;1.98;;
39400;SDS011;54391;50.000;7.360;2023-05-07T04:33:07;4.60;;;2.17;;
39400;SDS011;54391;50.000;7.360;2023-05-07T04:35:35;4.05;;;2.15;;
39400;SDS011;54391;50.000;7.360;2023-05-07T04:38:04;3.83;;;1.98;;
39400;SDS011;54391;50.000;7.360;2023-05-07T04:40:32;5.45;;;2.20;;
39400;SDS011;54391;50.000;7.360;2023-05-07T04:43:01;3.30;;;2.60;;
39400;SDS011;54391;50.000;7.360;2023-05-07T04:45:33;3.25;;;2.20;;
39400;SDS011;54391;50.000;7.360;2023-05-07T04:48:01;2.92;;;1.83;;
39400;SDS011;54391;50.000;7.360;2023-05-07T04:50:30;8.13;;;2.50;;
39400;SDS011;54391;50.000;7.360;2023-05-07T04:53:00;3.13;;;2.00;;
39400;SDS011;54391;50.000;7.360;2023-05-07T04:55:28;3.47;;;2.40;;
39400;SDS011;54391;50.000;7.360;2023-05-07T04:57:56;2.75;;;2.30;;
39400;SDS011;54391;50.000;7.360;2023-05-07T05:00:23;3.20;;;2.20;;
39400;SDS011;54391;50.000;7.360;2023-05-07T05:02:53;5.35;;;2.45;;
39400;SDS011;54391;50.000;7.360;2023-05-07T05:05:21;4.57;;;2.40;;
39400;SDS011;54391;50.000;7.360;2023-05-07T05:07:51;3.25;;;2.15;;
39400;SDS011;54391;50.000;7.360;2023-05-07T05:10:19;4.97;;;2.45;;
39400;SDS011;54391;50.000;7.360;2023-05-07T05:12:48;4.13;;;2.50;;
39400;SDS011;54391;50.000;7.360;2023-05-07T05:15:15;4.90;;;2.50;;
39400;SDS011;54391;50.000;7.360;2023-05-07T05:17:42;5.72;;;2.30;;
39400;SDS011;54391;50.000;7.360;2023-05-07T05:20:11;4.65;;;2.85;;
39400;SDS011;54391;50.000;7.360;2023-05-07T05:22:40;4.13;;;2.40;;
39400;SDS011;54391;50.000;7.360;2023-05-07T05:25:08;4.07;;;2.85;;
39400;SDS011;54391;50.000;7.360;2023-05-07T05:27:36;4.50;;;2.20;;
39400;SDS011;54391;50.000;7.360;2023-05-07T05:30:04;6.38;;;2.67;;
39400;SDS011;54391;50.000;7.360;2023-05-07T05:32:33;5.30;;;2.65;;
39400;SDS011;54391;50.000;7.360;2023-05-07T05:35:01;5.32;;;2.70;;
39400;SDS011;54391;50.000;7.360;2023-05-07T05:37:30;3.10;;;2.47;;
39400;SDS011;54391;50.000;7.360;2023-05-07T05:40:00;4.65;;;2.92;;
39400;SDS011;54391;50.000;7.360;2023-05-07T05:42:28;4.68;;;3.05;;
39400;SDS011;54391;50.000;7.360;2023-05-07T05:44:55;4.10;;;2.75;;
39400;SDS011;54391;50.000;7.360;2023-05-07T05:47:24;4.78;;;2.40;;
39400;SDS011;54391;50.000;7.360;2023-05-07T05:49:54;2.70;;;2.30;;
39400;SDS011;54391;50.000;7.360;2023-05-07T05:52:21;5.57;;;2.00;;
39400;SDS011;54391;50.000;7.360;2023-05-07T05:54:50;3.28;;;2.08;;
39400;SDS011;54391;50.000;7.360;2023-05-07T05:57:18;2.83;;;2.05;;
39400;SDS011;54391;50.000;7.360;2023-05-07T05:59:46;4.15;;;2.05;;
39400;SDS011;54391;50.000;7.360;2023-05-07T06:02:13;5.38;;;2.50;;
39400;SDS011;54391;50.000;7.360;2023-05-07T06:04:40;3.15;;;1.83;;
39400;SDS011;54391;50.000;7.360;2023-05-07T06:07:09;4.78;;;2.53;;
39400;SDS011;54391;50.000;7.360;2023-05-07T06:09:37;3.30;;;2.30;;
39400;SDS011;54391;50.000;7.360;2023-05-07T06:12:06;2.88;;;2.20;;
39400;SDS011;54391;50.000;7.360;2023-05-07T06:14:34;5.68;;;2.40;;
39400;SDS011;54391;50.000;7.360;2023-05-07T06:17:01;4.05;;;2.28;;
39400;SDS011;54391;50.000;7.360;2023-05-07T06:19:28;4.70;;;2.50;;
39400;SDS011;54391;50.000;7.360;2023-05-07T06:21:58;5.93;;;2.20;;
39400;SDS011;54391;50.000;7.360;2023-05-07T06:24:28;5.20;;;2.60;;
39400;SDS011;54391;50.000;7.360;2023-05-07T06:26:55;17.67;;;8.82;;
39400;SDS011;54391;50.000;7.360;2023-05-07T06:29:26;31.67;;;20.85;;
39400;SDS011;54391;50.000;7.360;2023-05-07T06:31:55;36.20;;;32.47;;
39400;SDS011;54391;50.000;7.360;2023-05-07T06:34:22;17.60;;;14.75;;
39400;SDS011;54391;50.000;7.360;2023-05-07T06:36:50;29.38;;;25.77;;
39400;SDS011;54391;50.000;7.360;2023-05-07T06:39:29;48.97;;;36.63;;
39400;SDS011;54391;50.000;7.360;2023-05-07T06:41:56;40.53;;;28.17;;
39400;SDS011;54391;50.000;7.360;2023-05-07T06:44:30;46.63;;;33.17;;
39400;SDS011;54391;50.000;7.360;2023-05-07T06:47:04;66.53;;;45.95;;
39400;SDS011;54391;50.000;7.360;2023-05-07T06:49:32;27.35;;;17.77;;
39400;SDS011;54391;50.000;7.360;2023-05-07T06:52:00;14.23;;;8.93;;
39400;SDS011;54391;50.000;7.360;2023-05-07T06:54:28;50.60;;;32.40;;
39400;SDS011;54391;50.000;7.360;2023-05-07T06:56:55;251.75;;;147.05;;
39400;SDS011;54391;50.000;7.360;2023-05-07T06:59:24;372.58;;;213.98;;
39400;SDS011;54391;50.000;7.360;2023-05-07T07:01:53;250.18;;;150.52;;
39400;SDS011;54391;50.000;7.360;2023-05-07T07:04:21;129.00;;;78.07;;
39400;SDS011;54391;50.000;7.360;2023-05-07T07:06:57;205.43;;;115.55;;
39400;SDS011;54391;50.000;7.360;2023-05-07T07:09:24;134.00;;;85.07;;
39400;SDS011;54391;50.000;7.360;2023-05-07T07:11:53;11.05;;;4.78;;
39400;SDS011;54391;50.000;7.360;2023-05-07T07:14:21;7.57;;;4.97;;
39400;SDS011;54391;50.000;7.360;2023-05-07T07:16:50;8.90;;;5.95;;
39400;SDS011;54391;50.000;7.360;2023-05-07T07:19:20;4.53;;;2.60;;
39400;SDS011;54391;50.000;7.360;2023-05-07T07:21:51;15.73;;;9.38;;
39400;SDS011;54391;50.000;7.360;2023-05-07T07:24:18;25.70;;;14.43;;
39400;SDS011;54391;50.000;7.360;2023-05-07T07:26:49;29.02;;;19.25;;
39400;SDS011;54391;50.000;7.360;2023-05-07T07:29:17;24.67;;;16.15;;
39400;SDS011;54391;50.000;7.360;2023-05-07T07:31:45;19.65;;;14.15;;
39400;SDS011;54391;50.000;7.360;2023-05-07T07:34:13;6.18;;;4.70;;
39400;SDS011;54391;50.000;7.360;2023-05-07T07:36:42;13.15;;;8.50;;
39400;SDS011;54391;50.000;7.360;2023-05-07T07:39:09;4.72;;;1.88;;
39400;SDS011;54391;50.000;7.360;2023-05-07T07:41:36;2.85;;;1.88;;
39400;SDS011;54391;50.000;7.360;2023-05-07T07:44:05;2.97;;;1.98;;
39400;SDS011;54391;50.000;7.360;2023-05-07T07:46:35;4.43;;;2.25;;
39400;SDS011;54391;50.000;7.360;2023-05-07T07:49:02;3.38;;;1.90;;
39400;SDS011;54391;50.000;7.360;2023-05-07T07:51:30;4.25;;;3.38;;
39400;SDS011;54391;50.000;7.360;2023-05-07T07:54:01;2.17;;;1.90;;
39400;SDS011;54391;50.000;7.360;2023-05-07T07:56:31;2.85;;;2.00;;
39400;SDS011;54391;50.000;7.360;2023-05-07T07:59:01;3.20;;;1.77;;
39400;SDS011;54391;50.000;7.360;2023-05-07T08:01:29;3.08;;;1.88;;
39400;SDS011;54391;50.000;7.360;2023-05-07T08:03:58;2.83;;;1.60;;
39400;SDS011;54391;50.000;7.360;2023-05-07T08:06:26;3.58;;;1.80;;
39400;SDS011;54391;50.000;7.360;2023-05-07T08:08:54;2.58;;;1.70;;
39400;SDS011;54391;50.000;7.360;2023-05-07T08:11:23;3.17;;;1.83;;
39400;SDS011;54391;50.000;7.360;2023-05-07T08:13:53;2.72;;;1.80;;
39400;SDS011;54391;50.000;7.360;2023-05-07T08:16:21;2.88;;;1.83;;
39400;SDS011;54391;50.000;7.360;2023-05-07T08:18:48;3.38;;;2.00;;
39400;SDS011;54391;50.000;7.360;2023-05-07T08:21:15;1.65;;;1.40;;
39400;SDS011;54391;50.000;7.360;2023-05-07T08:23:45;4.72;;;1.90;;
39400;SDS011;54391;50.000;7.360;2023-05-07T08:26:14;2.30;;;1.60;;
39400;SDS011;54391;50.000;7.360;2023-05-07T08:28:47;2.70;;;1.60;;
39400;SDS011;54391;50.000;7.360;2023-05-07T08:31:15;2.88;;;1.80;;
39400;SDS011;54391;50.000;7.360;2023-05-07T08:33:44;3.92;;;2.10;;
39400;SDS011;54391;50.000;7.360;2023-05-07T08:36:11;2.22;;;1.95;;
39400;SDS011;54391;50.000;7.360;2023-05-07T08:38:39;4.15;;;1.90;;
39400;SDS011;54391;50.000;7.360;2023-05-07T08:41:09;3.63;;;1.90;;
39400;SDS011;54391;50.000;7.360;2023-05-07T08:43:38;2.60;;;2.10;;
39400;SDS011;54391;50.000;7.360;2023-05-07T08:46:10;4.82;;;2.17;;
39400;SDS011;54391;50.000;7.360;2023-05-07T08:48:43;6.53;;;2.35;;
39400;SDS011;54391;50.000;7.360;2023-05-07T08:51:15;3.15;;;1.80;;
39400;SDS011;54391;50.000;7.360;2023-05-07T08:53:43;3.25;;;1.85;;
39400;SDS011;54391;50.000;7.360;2023-05-07T08:56:14;3.72;;;2.25;;
39400;SDS011;54391;50.000;7.360;2023-05-07T08:58:42;2.70;;;1.85;;
39400;SDS011;54391;50.000;7.360;2023-05-07T09:01:12;3.72;;;2.33;;
39400;SDS011;54391;50.000;7.360;2023-05-07T09:03:42;4.85;;;3.00;;
39400;SDS011;54391;50.000;7.360;2023-05-07T09:06:12;3.85;;;2.15;;
39400;SDS011;54391;50.000;7.360;2023-05-07T09:08:40;4.90;;;2.38;;
39400;SDS011;54391;50.000;7.360;2023-05-07T09:11:08;4.07;;;2.33;;
39400;SDS011;54391;50.000;7.360;2023-05-07T09:13:38;2.60;;;1.90;;
39400;SDS011;54391;50.000;7.360;2023-05-07T09:16:09;5.60;;;2.25;;
39400;SDS011;54391;50.000;7.360;2023-05-07T09:18:42;3.65;;;2.35;;
39400;SDS011;54391;50.000;7.360;2023-05-07T09:21:11;3.95;;;2.33;;
39400;SDS011;54391;50.000;7.360;2023-05-07T09:23:42;2.42;;;2.20;;
39400;SDS011;54391;50.000;7.360;2023-05-07T09:26:10;2.80;;;2.13;;
39400;SDS011;54391;50.000;7.360;2023-05-07T09:28:40;3.10;;;1.90;;
39400;SDS011;54391;50.000;7.360;2023-05-07T09:31:10;5.28;;;2.15;;
39400;SDS011;54391;50.000;7.360;2023-05-07T09:33:37;2.58;;;2.13;;
39400;SDS011;54391;50.000;7.360;2023-05-07T09:36:08;3.38;;;2.63;;
39400;SDS011;54391;50.000;7.360;2023-05-07T09:38:38;4.15;;;2.40;;
39400;SDS011;54391;50.000;7.360;2023-05-07T09:41:07;3.05;;;2.13;;
39400;SDS011;54391;50.000;7.360;2023-05-07T09:43:55;3.67;;;1.98;;
39400;SDS011;54391;50.000;7.360;2023-05-07T09:46:29;4.47;;;2.40;;
39400;SDS011;54391;50.000;7.360;2023-05-07T09:49:01;3.97;;;2.10;;
39400;SDS011;54391;50.000;7.360;2023-05-07T09:51:34;2.70;;;2.08;;
39400;SDS011;54391;50.000;7.360;2023-05-07T09:54:05;5.03;;;2.00;;
39400;SDS011;54391;50.000;7.360;2023-05-07T09:56:36;2.63;;;1.90;;
39400;SDS011;54391;50.000;7.360;2023-05-07T09:59:05;3.90;;;2.15;;
39400;SDS011;54391;50.000;7.360;2023-05-07T10:01:33;4.68;;;2.17;;
39400;SDS011;54391;50.000;7.360;2023-05-07T10:04:03;3.83;;;2.10;;
39400;SDS011;54391;50.000;7.360;2023-05-07T10:06:33;3.42;;;2.22;;
39400;SDS011;54391;50.000;7.360;2023-05-07T10:09:01;3.97;;;2.10;;
39400;SDS011;54391;50.000;7.360;2023-05-07T10:11:31;3.22;;;2.30;;
39400;SDS011;54391;50.000;7.360;2023-05-07T10:14:00;3.83;;;1.88;;
39400;SDS011;54391;50.000;7.360;2023-05-07T10:16:28;3.47;;;2.00;;
39400;SDS011;54391;50.000;7.360;2023-05-07T10:19:02;3.28;;;2.03;;
39400;SDS011;54391;50.000;7.360;2023-05-07T10:21:30;5.32;;;2.00;;
39400;SDS011;54391;50.000;7.360;2023-05-07T10:24:05;3.05;;;1.85;;
39400;SDS011;54391;50.000;7.360;2023-05-07T10:26:39;3.05;;;1.90;;
39400;SDS011;54391;50.000;7.360;2023-05-07T10:29:11;3.80;;;2.28;;
39400;SDS011;54391;50.000;7.360;2023-05-07T10:31:53;3.03;;;1.77;;
39400;SDS011;54391;50.000;7.360;2023-05-07T10:34:26;3.13;;;1.90;;
39400;SDS011;54391;50.000;7.360;2023-05-07T10:36:59;3.63;;;1.90;;
39400;SDS011;54391;50.000;7.360;2023-05-07T10:39:28;3.58;;;1.85;;
39400;SDS011;54391;50.000;7.360;2023-05-07T10:41:57;2.50;;;1.88;;
39400;SDS011;54391;50.000;7.360;2023-05-07T10:44:34;2.05;;;1.75;;
39400;SDS011;54391;50.000;7.360;2023-05-07T10:47:07;4.50;;;1.83;;
39400;SDS011;54391;50.000;7.360;2023-05-07T10:49:38;5.65;;;2.08;;
39400;SDS011;54391;50.000;7.360;2023-05-07T10:52:43;3.80;;;1.60;;
39400;SDS011;54391;50.000;7.360;2023-05-07T10:55:22;2.70;;;2.05;;
39400;SDS011;54391;50.000;7.360;2023-05-07T10:58:22;2.13;;;1.52;;
39400;SDS011;54391;50.000;7.360;2023-05-07T11:00:56;3.30;;;1.65;;
39400;SDS011;54391;50.000;7.360;2023-05-07T11:03:30;2.72;;;1.77;;
39400;SDS011;54391;50.000;7.360;2023-05-07T11:06:10;3.00;;;1.67;;
39400;SDS011;54391;50.000;7.360;2023-05-07T11:08:59;3.28;;;1.60;;
39400;SDS011;54391;50.000;7.360;2023-05-07T11:11:46;2.20;;;1.70;;
39400;SDS011;54391;50.000;7.360;2023-05-07T11:14:45;4.40;;;1.80;;
39400;SDS011;54391;50.000;7.360;2023-05-07T11:17:17;4.82;;;1.80;;
39400;SDS011;54391;50.000;7.360;2023-05-07T11:19:50;2.95;;;1.67;;
39400;SDS011;54391;50.000;7.360;2023-05-07T11:22:41;3.17;;;1.52;;
39400;SDS011;54391;50.000;7.360;2023-05-07T11:25:34;3.42;;;1.92;;
39400;SDS011;54391;50.000;7.360;2023-05-07T11:28:12;2.75;;;1.88;;
39400;SDS011;54391;50.000;7.360;2023-05-07T11:30:46;2.92;;;1.98;;
39400;SDS011;54391;50.000;7.360;2023-05-07T11:33:16;4.28;;;2.30;;
39400;SDS011;54391;50.000;7.360;2023-05-07T11:35:46;3.90;;;2.15;;
39400;SDS011;54391;50.000;7.360;2023-05-07T11:38:16;2.72;;;1.73;;
39400;SDS011;54391;50.000;7.360;2023-05-07T11:40:50;4.38;;;1.90;;
39400;SDS011;54391;50.000;7.360;2023-05-07T11:43:18;4.53;;;2.00;;
39400;SDS011;54391;50.000;7.360;2023-05-07T11:45:46;12.10;;;2.22;;
39400;SDS011;54391;50.000;7.360;2023-05-07T11:48:14;2.65;;;1.80;;
39400;SDS011;54391;50.000;7.360;2023-05-07T11:50:49;6.72;;;2.17;;
39400;SDS011;54391;50.000;7.360;2023-05-07T11:53:17;3.50;;;1.90;;
39400;SDS011;54391;50.000;7.360;2023-05-07T11:55:45;3.50;;;2.03;;
39400;SDS011;54391;50.000;7.360;2023-05-07T11:58:12;2.33;;;1.77;;
39400;SDS011;54391;50.000;7.360;2023-05-07T12:00:48;3.45;;;2.03;;
39400;SDS011;54391;50.000;7.360;2023-05-07T12:03:16;2.65;;;2.22;;
39400;SDS011;54391;50.000;7.360;2023-05-07T12:05:44;3.50;;;2.28;;
39400;SDS011;54391;50.000;7.360;2023-05-07T12:08:13;4.55;;;1.95;;
39400;SDS011;54391;50.000;7.360;2023-05-07T12:10:41;4.82;;;1.95;;
39400;SDS011;54391;50.000;7.360;2023-05-07T12:13:13;4.75;;;2.10;;
39400;SDS011;54391;50.000;7.360;2023-05-07T12:15:43;3.38;;;2.20;;
39400;SDS011;54391;50.000;7.360;2023-05-07T12:18:11;5.60;;;2.08;;
39400;SDS011;54391;50.000;7.360;2023-05-07T12:20:38;3.33;;;2.15;;
39400;SDS011;54391;50.000;7.360;2023-05-07T12:23:06;2.72;;;1.88;;
39400;SDS011;54391;50.000;7.360;2023-05-07T12:25:34;3.92;;;2.05;;
39400;SDS011;54391;50.000;7.360;2023-05-07T12:28:01;2.83;;;2.00;;
39400;SDS011;54391;50.000;7.360;2023-05-07T12:30:30;3.50;;;2.00;;
39400;SDS011;54391;50.000;7.360;2023-05-07T12:32:59;3.80;;;2.28;;
39400;SDS011;54391;50.000;7.360;2023-05-07T12:35:27;3.45;;;2.13;;
39400;SDS011;54391;50.000;7.360;2023-05-07T12:37:54;5.93;;;2.90;;
39400;SDS011;54391;50.000;7.360;2023-05-07T12:40:22;4.05;;;2.67;;
39400;SDS011;54391;50.000;7.360;2023-05-07T12:42:52;4.10;;;2.72;;
39400;SDS011;54391;50.000;7.360;2023-05-07T12:45:20;4.20;;;2.53;;
39400;SDS011;54391;50.000;7.360;2023-05-07T12:47:47;5.63;;;2.67;;
39400;SDS011;54391;50.000;7.360;2023-05-07T12:50:16;4.97;;;2.58;;
39400;SDS011;54391;50.000;7.360;2023-05-07T12:52:43;3.50;;;2.58;;
39400;SDS011;54391;50.000;7.360;2023-05-07T12:55:12;4.95;;;2.88;;
39400;SDS011;54391;50.000;7.360;2023-05-07T12:57:42;4.35;;;2.30;;
39400;SDS011;54391;50.000;7.360;2023-05-07T13:00:10;6.65;;;2.45;;
39400;SDS011;54391;50.000;7.360;2023-05-07T13:02:38;6.45;;;2.90;;
39400;SDS011;54391;50.000;7.360;2023-05-07T13:05:07;4.60;;;2.38;;
39400;SDS011;54391;50.000;7.360;2023-05-07T13:07:36;14.27;;;3.30;;
39400;SDS011;54391;50.000;7.360;2023-05-07T13:10:03;8.98;;;2.97;;
39400;SDS011;54391;50.000;7.360;2023-05-07T13:12:31;10.10;;;7.13;;
39400;SDS011;54391;50.000;7.360;2023-05-07T13:14:58;5.88;;;3.25;;
39400;SDS011;54391;50.000;7.360;2023-05-07T13:17:27;5.70;;;3.00;;
39400;SDS011;54391;50.000;7.360;2023-05-07T13:19:56;4.15;;;2.25;;
39400;SDS011;54391;50.000;7.360;2023-05-07T13:22:23;3.92;;;2.70;;
39400;SDS011;54391;50.000;7.360;2023-05-07T13:24:52;5.00;;;2.30;;
39400;SDS011;54391;50.000;7.360;2023-05-07T13:27:19;4.00;;;2.50;;
39400;SDS011;54391;50.000;7.360;2023-05-07T13:29:46;3.20;;;2.70;;
39400;SDS011;54391;50.000;7.360;2023-05-07T13:32:14;2.97;;;2.20;;
39400;SDS011;54391;50.000;7.360;2023-05-07T13:34:41;3.60;;;3.22;;
39400;SDS011;54391;50.000;7.360;2023-05-07T13:37:08;4.30;;;2.40;;
39400;SDS011;54391;50.000;7.360;2023-05-07T13:39:36;3.22;;;2.20;;
39400;SDS011;54391;50.000;7.360;2023-05-07T13:42:04;4.70;;;2.90;;
39400;SDS011;54391;50.000;7.360;2023-05-07T13:44:32;3.03;;;2.55;;
39400;SDS011;54391;50.000;7.360;2023-05-07T13:46:59;4.47;;;2.90;;
39400;SDS011;54391;50.000;7.360;2023-05-07T13:49:27;6.60;;;2.55;;
39400;SDS011;54391;50.000;7.360;2023-05-07T13:51:55;5.95;;;2.50;;
39400;SDS011;54391;50.000;7.360;2023-05-07T13:54:22;3.45;;;2.13;;
39400;SDS011;54391;50.000;7.360;2023-05-07T13:56:49;4.57;;;2.80;;
39400;SDS011;54391;50.000;7.360;2023-05-07T13:59:18;6.00;;;3.90;;
39400;SDS011;54391;50.000;7.360;2023-05-07T14:01:45;5.40;;;3.50;;
39400;SDS011;54391;50.000;7.360;2023-05-07T14:04:13;13.32;;;8.07;;
39400;SDS011;54391;50.000;7.360;2023-05-07T14:06:40;6.47;;;4.15;;
39400;SDS011;54391;50.000;7.360;2023-05-07T14:09:07;3.50;;;2.63;;
39400;SDS011;54391;50.000;7.360;2023-05-07T14:11:37;4.05;;;3.25;;
39400;SDS011;54391;50.000;7.360;2023-05-07T14:14:05;4.95;;;2.60;;
39400;SDS011;54391;50.000;7.360;2023-05-07T14:16:33;3.72;;;2.40;;
39400;SDS011;54391;50.000;7.360;2023-05-07T14:19:01;3.72;;;2.42;;
39400;SDS011;54391;50.000;7.360;2023-05-07T14:21:28;6.25;;;2.78;;
39400;SDS011;54391;50.000;7.360;2023-05-07T14:23:56;4.68;;;3.25;;
39400;SDS011;54391;50.000;7.360;2023-05-07T14:26:23;6.82;;;3.22;;
39400;SDS011;54391;50.000;7.360;2023-05-07T14:28:52;6.40;;;3.13;;
39400;SDS011;54391;50.000;7.360;2023-05-07T14:31:22;6.40;;;3.63;;
39400;SDS011;54391;50.000;7.360;2023-05-07T14:33:51;8.68;;;4.20;;
39400;SDS011;54391;50.000;7.360;2023-05-07T14:36:18;8.07;;;3.47;;
39400;SDS011;54391;50.000;7.360;2023-05-07T14:38:48;7.57;;;3.47;;
39400;SDS011;54391;50.000;7.360;2023-05-07T14:41:15;5.47;;;3.25;;
39400;SDS011;54391;50.000;7.360;2023-05-07T14:43:43;9.77;;;3.30;;
39400;SDS011;54391;50.000;7.360;2023-05-07T14:46:15;9.85;;;3.60;;
39400;SDS011;54391;50.000;7.360;2023-05-07T14:48:43;9.55;;;3.78;;
39400;SDS011;54391;50.000;7.360;2023-05-07T14:51:12;5.68;;;3.53;;
39400;SDS011;54391;50.000;7.360;2023-05-07T14:53:40;6.82;;;3.83;;
39400;SDS011;54391;50.000;7.360;2023-05-07T14:56:08;4.63;;;3.53;;
39400;SDS011;54391;50.000;7.360;2023-05-07T14:58:35;6.75;;;3.78;;
39400;SDS011;54391;50.000;7.360;2023-05-07T15:01:03;7.82;;;3.63;;
39400;SDS011;54391;50.000;7.360;2023-05-07T15:03:30;8.13;;;3.78;;